Potomac — WBF7534 — position and weather

sailwx.info

Track history (hours):
 
Tides and Currents Weather Stations Pressure Air Temp Water Temp Dewpoint Dewpoint Depression Visibility Wind Speed Wind Dir Waves Ship Positions

Potomac

Owner: POTOMAC ASSOCIATION, OAKLAND, CA. More information available from US FCC via Universal Licensing System and Coast Guard Vessel Documentation Center.

Last reported at 2017-Aug-21 00:08 UTC. Time now 2017-Aug-22 22:32 UTC.
Position N 37°48' W 122°17'.

Length 51 m; draft 3.1 m.

MMSI: 367166810.

Date/timePositionNaut miles runAvg speedWind from/ knotsBaromVisibWave heightAir tempDewpointWater temp
2017-Aug-21 00:08N 37°48' W 122°17'0 0.0
2017-Aug-21 00:00N 37°48' W 122°17'4 7.1
2017-Aug-20 23:30N 37°48' W 122°21'2 3.7
2017-Aug-20 23:00N 37°48' W 122°24'1 3.0
2017-Aug-20 22:30N 37°47' W 122°22'4 8.9
2017-Aug-20 22:00N 37°48' W 122°17'0 0.1
2017-Aug-20 21:23N 37°48' W 122°17'0 0.0
2017-Aug-20 20:59N 37°48' W 122°17'  
2017-Aug-17 19:41N 37°48' W 122°17'0 1.7
2017-Aug-17 19:30N 37°48' W 122°17'510.8
2017-Aug-17 19:00N 37°49' W 122°24'4 8.1
2017-Aug-17 18:30N 37°52' W 122°26'611.3
2017-Aug-17 18:00N 37°48' W 122°21'3 6.1
2017-Aug-17 17:29N 37°48' W 122°17'  
2017-Aug-14 00:01N 37°48' W 122°17'0 0.0
2017-Aug-14 00:00N 37°48' W 122°17'3 6.4
2017-Aug-13 23:30N 37°48' W 122°21'612.0
2017-Aug-13 23:00N 37°51' W 122°27'1 1.7
2017-Aug-13 22:30N 37°50' W 122°28'1 3.0
2017-Aug-13 22:00N 37°49' W 122°27'5 9.4
2017-Aug-13 21:30N 37°48' W 122°21'4 7.2
2017-Aug-13 21:00N 37°48' W 122°17'0 0.0
2017-Aug-13 20:30N 37°48' W 122°17'0 0.0
2017-Aug-13 00:25N 37°48' W 122°17'0 0.5
2017-Aug-13 00:00N 37°48' W 122°17'4 7.7
2017-Aug-12 23:31N 37°49' W 122°21'510.9
2017-Aug-12 23:01N 37°54' W 122°24'3 5.0
2017-Aug-12 22:30N 37°55' W 122°21'0 0.0
2017-Aug-12 22:01N 37°55' W 122°21'0 0.0
2017-Aug-12 21:30N 37°55' W 122°21'0 0.0
2017-Aug-12 21:01N 37°55' W 122°21'0 0.0
2017-Aug-12 20:30N 37°55' W 122°21'0 0.0
2017-Aug-12 20:00N 37°55' W 122°21'0 0.0
2017-Aug-12 19:30N 37°55' W 122°21'0 0.0
2017-Aug-12 19:01N 37°55' W 122°21'0 0.0
2017-Aug-12 18:30N 37°55' W 122°21'0 0.0
2017-Aug-12 18:00N 37°55' W 122°21'0 0.0
2017-Aug-12 17:30N 37°55' W 122°21'1 1.5
2017-Aug-12 16:59N 37°54' W 122°22'3 5.6
2017-Aug-12 16:31N 37°52' W 122°23'611.2
2017-Aug-12 16:00N 37°48' W 122°19'1 2.8
2017-Aug-12 15:31N 37°48' W 122°17'0 0.0
2017-Aug-12 15:01N 37°48' W 122°17'0 0.0
2017-Aug-12 04:22N 37°48' W 122°17'1 2.5
2017-Aug-12 04:00N 37°48' W 122°18'510.4
2017-Aug-12 03:31N 37°49' W 122°24'2 4.7
2017-Aug-12 03:01N 37°49' W 122°27'4 7.7
2017-Aug-12 02:31N 37°48' W 122°23'5 9.2
2017-Aug-12 02:00N 37°48' W 122°17'0 0.0
2017-Aug-12 01:30N 37°48' W 122°17'  
Track history (hours):
 
Tides and Currents Weather Stations Pressure Air Temp Water Temp Dewpoint Dewpoint Depression Visibility Wind Speed Wind Dir Waves Ship Positions

Potomac

Owner: POTOMAC ASSOCIATION, OAKLAND, CA. More information available from US FCC via Universal Licensing System and Coast Guard Vessel Documentation Center.

Last reported at 2017-Aug-21 00:08 UTC. Time now 2017-Aug-22 22:32 UTC.
Position N 37°48' W 122°17'.

Length 51 m; draft 3.1 m.

MMSI: 367166810.

Date/timePositionNaut miles runAvg speedWind from/ knotsBaromVisibWave heightAir tempDewpointWater temp
2017-Aug-21 00:08N 37°48' W 122°17'0 0.0
2017-Aug-21 00:00N 37°48' W 122°17'4 7.1
2017-Aug-20 23:30N 37°48' W 122°21'2 3.7
2017-Aug-20 23:00N 37°48' W 122°24'1 3.0
2017-Aug-20 22:30N 37°47' W 122°22'4 8.9
2017-Aug-20 22:00N 37°48' W 122°17'0 0.1
2017-Aug-20 21:23N 37°48' W 122°17'0 0.0
2017-Aug-20 20:59N 37°48' W 122°17'  
2017-Aug-17 19:41N 37°48' W 122°17'0 1.7
2017-Aug-17 19:30N 37°48' W 122°17'510.8
2017-Aug-17 19:00N 37°49' W 122°24'4 8.1
2017-Aug-17 18:30N 37°52' W 122°26'611.3
2017-Aug-17 18:00N 37°48' W 122°21'3 6.1
2017-Aug-17 17:29N 37°48' W 122°17'  
2017-Aug-14 00:01N 37°48' W 122°17'0 0.0
2017-Aug-14 00:00N 37°48' W 122°17'3 6.4
2017-Aug-13 23:30N 37°48' W 122°21'612.0
2017-Aug-13 23:00N 37°51' W 122°27'1 1.7
2017-Aug-13 22:30N 37°50' W 122°28'1 3.0
2017-Aug-13 22:00N 37°49' W 122°27'5 9.4
2017-Aug-13 21:30N 37°48' W 122°21'4 7.2
2017-Aug-13 21:00N 37°48' W 122°17'0 0.0
2017-Aug-13 20:30N 37°48' W 122°17'0 0.0
2017-Aug-13 00:25N 37°48' W 122°17'0 0.5
2017-Aug-13 00:00N 37°48' W 122°17'4 7.7
2017-Aug-12 23:31N 37°49' W 122°21'510.9
2017-Aug-12 23:01N 37°54' W 122°24'3 5.0
2017-Aug-12 22:30N 37°55' W 122°21'0 0.0
2017-Aug-12 22:01N 37°55' W 122°21'0 0.0
2017-Aug-12 21:30N 37°55' W 122°21'0 0.0
2017-Aug-12 21:01N 37°55' W 122°21'0 0.0
2017-Aug-12 20:30N 37°55' W 122°21'0 0.0
2017-Aug-12 20:00N 37°55' W 122°21'0 0.0
2017-Aug-12 19:30N 37°55' W 122°21'0 0.0
2017-Aug-12 19:01N 37°55' W 122°21'0 0.0
2017-Aug-12 18:30N 37°55' W 122°21'0 0.0
2017-Aug-12 18:00N 37°55' W 122°21'0 0.0
2017-Aug-12 17:30N 37°55' W 122°21'1 1.5
2017-Aug-12 16:59N 37°54' W 122°22'3 5.6
2017-Aug-12 16:31N 37°52' W 122°23'611.2
2017-Aug-12 16:00N 37°48' W 122°19'1 2.8
2017-Aug-12 15:31N 37°48' W 122°17'0 0.0
2017-Aug-12 15:01N 37°48' W 122°17'0 0.0
2017-Aug-12 04:22N 37°48' W 122°17'1 2.5
2017-Aug-12 04:00N 37°48' W 122°18'510.4
2017-Aug-12 03:31N 37°49' W 122°24'2 4.7
2017-Aug-12 03:01N 37°49' W 122°27'4 7.7
2017-Aug-12 02:31N 37°48' W 122°23'5 9.2
2017-Aug-12 02:00N 37°48' W 122°17'0 0.0
2017-Aug-12 01:30N 37°48' W 122°17'  

Dump ship's entire track history